Time;durP1;ratioP1;P1;durP2;ratioP2;P2;SDS_P1;SDS_P2;PMS_P1;PMS_P2;Temp;Humidity;BMP_temperature;BMP_pressure;BME280_temperature;BME280_humidity;BME280_pressure;Samples;Min_cycle;Max_cycle;Signal;HPM_P1;HPM_P2
2021/03/22 00:00:46;;;;;;;16.98;11.93;;;77.50;2227.20;;;;;;5023732;28;20379;-71
2021/03/22 00:03:13;;;;;;;17.20;11.87;;;77.50;2227.20;;;;;;5025419;28;20032;-71
2021/03/22 00:05:39;;;;;;;16.88;11.13;;;77.40;2227.20;;;;;;5015956;28;20033;-72
2021/03/22 00:08:06;;;;;;;17.88;11.30;;;77.40;2227.20;;;;;;5032246;28;20029;-70
2021/03/22 00:10:34;;;;;;;17.52;11.40;;;77.40;2227.20;;;;;;5031985;28;20029;-72
2021/03/22 00:13:01;;;;;;;15.27;10.85;;;77.40;2227.20;;;;;;5031468;28;20029;-74
2021/03/22 00:15:29;;;;;;;18.45;11.93;;;77.40;2227.20;;;;;;5032022;28;20548;-70
2021/03/22 00:17:55;;;;;;;18.52;12.30;;;77.40;2227.20;;;;;;5032399;28;20026;-70
2021/03/22 00:20:21;;;;;;;16.15;11.18;;;77.40;2227.20;;;;;;5025635;28;20514;-71
2021/03/22 00:22:47;;;;;;;18.75;12.25;;;77.30;2227.20;;;;;;5024450;28;20021;-69
2021/03/22 00:25:14;;;;;;;16.90;10.98;;;77.30;2227.20;;;;;;5032005;28;20029;-71
2021/03/22 00:27:39;;;;;;;17.52;11.35;;;77.20;2227.20;;;;;;5030744;28;20394;-70
2021/03/22 00:30:08;;;;;;;17.65;11.93;;;77.20;2227.20;;;;;;5031926;28;20025;-72
2021/03/22 00:32:34;;;;;;;18.42;12.10;;;77.20;2227.20;;;;;;5032098;28;20053;-75
2021/03/22 00:35:00;;;;;;;19.30;12.10;;;77.10;2227.20;;;;;;5035452;28;20099;-72
2021/03/22 00:37:25;;;;;;;23.25;13.82;;;77.10;2227.20;;;;;;5032432;28;20033;-71
2021/03/22 00:39:51;;;;;;;20.77;13.30;;;77.10;2227.20;;;;;;5031702;28;20030;-71
2021/03/22 00:42:17;;;;;;;19.92;13.18;;;77.00;2227.20;;;;;;5024456;28;20104;-71
2021/03/22 00:44:43;;;;;;;19.27;13.68;;;77.00;2227.20;;;;;;5029295;28;20029;-72
2021/03/22 00:47:08;;;;;;;18.70;12.48;;;77.00;2227.20;;;;;;5029065;28;20109;-71
2021/03/22 00:49:35;;;;;;;19.20;13.20;;;77.00;2227.20;;;;;;5011926;28;20112;-72
2021/03/22 00:52:01;;;;;;;18.98;12.50;;;77.00;2227.20;;;;;;5012697;28;20486;-72
2021/03/22 00:54:27;;;;;;;19.40;13.07;;;77.00;2227.20;;;;;;5016176;28;20013;-71
2021/03/22 00:56:52;;;;;;;19.67;13.05;;;77.00;2227.20;;;;;;5015631;28;20029;-69
2021/03/22 00:59:18;;;;;;;18.90;12.95;;;76.90;2227.20;;;;;;5015211;28;20033;-75
2021/03/22 01:01:44;;;;;;;18.35;12.43;;;76.90;2227.20;;;;;;5017088;28;20052;-71
2021/03/22 01:04:10;;;;;;;22.40;13.95;;;76.90;2227.20;;;;;;5020050;28;20053;-72
2021/03/22 01:06:36;;;;;;;20.13;13.27;;;76.90;2227.20;;;;;;5013412;28;20497;-73
2021/03/22 01:09:04;;;;;;;20.52;13.30;;;76.90;2227.20;;;;;;5012555;28;20395;-72
2021/03/22 01:11:30;;;;;;;20.30;12.88;;;76.90;2227.20;;;;;;5019221;28;20026;-72
2021/03/22 01:13:58;;;;;;;20.58;13.07;;;76.90;2227.20;;;;;;5013598;28;20026;-71
2021/03/22 01:16:27;;;;;;;21.70;13.32;;;76.90;2227.20;;;;;;5012225;28;20285;-79
2021/03/22 01:18:56;;;;;;;19.48;12.50;;;76.90;2227.20;;;;;;5010171;28;20052;-73
2021/03/22 01:21:41;;;;;;;20.13;12.85;;;76.80;2227.20;;;;;;5014512;28;20037;-72
2021/03/22 01:24:09;;;;;;;20.00;12.02;;;76.90;2227.20;;;;;;5014820;28;20037;-70
2021/03/22 01:26:36;;;;;;;18.77;12.52;;;76.80;2227.20;;;;;;5013233;28;20022;-70
2021/03/22 01:29:17;;;;;;;19.05;12.65;;;76.80;2227.20;;;;;;5010648;28;20022;-71
2021/03/22 01:31:44;;;;;;;18.98;12.45;;;76.80;2227.20;;;;;;5011353;28;20097;-71
2021/03/22 01:34:10;;;;;;;22.20;13.68;;;76.80;2227.20;;;;;;5009614;28;20061;-73
2021/03/22 01:36:36;;;;;;;21.83;12.70;;;76.80;2227.20;;;;;;5009689;28;20454;-73
2021/03/22 01:39:19;;;;;;;19.27;12.63;;;76.80;2227.20;;;;;;5011573;28;20076;-72
2021/03/22 01:41:51;;;;;;;21.17;12.95;;;76.80;2227.20;;;;;;5018299;28;20100;-71
2021/03/22 01:44:43;;;;;;;21.10;12.75;;;76.80;2227.20;;;;;;5015054;28;20132;-72
2021/03/22 01:47:22;;;;;;;18.85;12.15;;;76.80;2227.20;;;;;;5022015;28;20076;-76
2021/03/22 01:49:56;;;;;;;18.08;11.63;;;76.80;2227.20;;;;;;5030716;28;20036;-72
2021/03/22 01:52:24;;;;;;;20.38;12.20;;;52.10;2227.20;;;;;;5035263;28;20102;-73
2021/03/22 01:54:52;;;;;;;20.27;12.45;;;52.10;2227.20;;;;;;5047036;28;20109;-72
2021/03/22 01:57:24;;;;;;;20.10;12.18;;;52.10;2227.20;;;;;;5036166;28;20027;-73
2021/03/22 01:59:51;;;;;;;19.05;12.27;;;52.00;2227.20;;;;;;5030512;28;20112;-72
2021/03/22 02:02:17;;;;;;;17.50;11.63;;;52.00;2227.20;;;;;;5021164;28;20445;-73
2021/03/22 02:04:43;;;;;;;20.73;13.25;;;52.00;2227.20;;;;;;5027017;28;20035;-73
2021/03/22 02:07:09;;;;;;;19.45;12.60;;;52.00;2227.20;;;;;;5030083;28;20034;-72
2021/03/22 02:09:35;;;;;;;21.15;12.55;;;52.00;2227.20;;;;;;5029941;28;20048;-73
2021/03/22 02:12:00;;;;;;;19.98;12.43;;;51.90;2227.20;;;;;;5030499;28;20500;-72
2021/03/22 02:14:26;;;;;;;21.15;13.05;;;51.90;2227.20;;;;;;5030106;28;20028;-71
2021/03/22 02:17:28;;;;;;;19.02;12.10;;;51.90;2227.20;;;;;;5030873;28;20026;-71
2021/03/22 02:20:31;;;;;;;20.67;13.27;;;51.90;2227.20;;;;;;5007760;28;20054;-72
2021/03/22 02:23:29;;;;;;;20.35;12.15;;;51.90;2227.20;;;;;;5018376;28;20032;-71
2021/03/22 02:26:01;;;;;;;21.83;12.57;;;51.90;2227.20;;;;;;5028244;28;20441;-72
2021/03/22 02:28:42;;;;;;;19.20;11.93;;;51.90;2227.20;;;;;;5030317;28;20053;-72
2021/03/22 02:31:35;;;;;;;19.45;13.00;;;51.90;2227.20;;;;;;5030736;28;20049;-73
2021/03/22 02:34:22;;;;;;;21.00;12.98;;;51.90;2227.20;;;;;;5030020;28;20037;-73
2021/03/22 02:37:17;;;;;;;21.35;13.95;;;51.90;2227.20;;;;;;5030487;28;20021;-72
2021/03/22 02:39:54;;;;;;;21.83;14.15;;;51.90;2227.20;;;;;;5017042;28;20413;-73
2021/03/22 02:42:21;;;;;;;22.10;13.43;;;51.90;2227.20;;;;;;5021661;28;20383;-72
2021/03/22 02:44:47;;;;;;;20.50;13.52;;;51.90;2227.20;;;;;;5030168;28;20034;-71
2021/03/22 02:47:29;;;;;;;19.15;12.55;;;51.90;2227.20;;;;;;5031299;28;20036;-72
2021/03/22 02:49:58;;;;;;;20.80;12.77;;;51.90;2227.20;;;;;;5033850;28;20028;-72
2021/03/22 02:52:45;;;;;;;20.58;12.88;;;51.90;2227.20;;;;;;5037224;28;20049;-72
2021/03/22 02:55:13;;;;;;;20.92;12.88;;;51.90;2227.20;;;;;;5053827;28;20025;-71
2021/03/22 02:57:44;;;;;;;21.05;12.95;;;51.90;2227.20;;;;;;5045609;28;20660;-76
2021/03/22 03:00:33;;;;;;;21.80;13.25;;;51.90;2227.20;;;;;;5053686;28;20389;-73
2021/03/22 03:03:03;;;;;;;20.73;12.45;;;51.90;2227.20;;;;;;5030206;28;20518;-71
2021/03/22 03:05:31;;;;;;;18.42;11.85;;;51.80;2227.20;;;;;;5028321;28;20026;-71
2021/03/22 03:08:00;;;;;;;20.10;12.75;;;51.80;2227.20;;;;;;5036476;28;20033;-72
2021/03/22 03:10:26;;;;;;;20.30;12.18;;;51.80;2227.20;;;;;;5042497;28;20033;-71
2021/03/22 03:12:52;;;;;;;18.83;11.90;;;51.80;2227.20;;;;;;5027976;28;20017;-71
2021/03/22 03:15:21;;;;;;;21.35;13.43;;;51.80;2227.20;;;;;;5043724;28;20393;-73
2021/03/22 03:17:47;;;;;;;21.52;12.95;;;51.80;2227.20;;;;;;5037886;28;20535;-72
2021/03/22 03:20:20;;;;;;;19.88;12.13;;;51.70;2227.20;;;;;;5051985;28;20055;-71
2021/03/22 03:22:46;;;;;;;18.48;11.57;;;51.70;2227.20;;;;;;5035121;28;20103;-72
2021/03/22 03:25:13;;;;;;;18.83;12.05;;;51.70;2227.20;;;;;;5039267;28;20057;-71
2021/03/22 03:27:38;;;;;;;19.30;11.13;;;51.70;2227.20;;;;;;5042582;28;20111;-72
2021/03/22 03:30:10;;;;;;;19.77;12.05;;;51.70;2227.20;;;;;;5053311;28;20095;-72
2021/03/22 03:32:36;;;;;;;16.85;10.95;;;51.70;2227.20;;;;;;5051842;28;20108;-71
2021/03/22 03:35:03;;;;;;;16.90;11.30;;;51.60;2227.20;;;;;;5053320;28;20585;-71
2021/03/22 03:37:29;;;;;;;18.42;11.40;;;51.60;2227.20;;;;;;5053618;28;20394;-71
2021/03/22 03:39:54;;;;;;;17.88;10.95;;;51.60;2227.20;;;;;;5052724;28;20025;-73
2021/03/22 03:42:20;;;;;;;18.17;11.50;;;51.60;2227.20;;;;;;5038636;28;20033;-72
2021/03/22 03:44:46;;;;;;;18.15;11.50;;;51.60;2227.20;;;;;;5037294;28;20065;-72
2021/03/22 03:47:11;;;;;;;18.50;11.45;;;51.60;2227.20;;;;;;5033780;28;20021;-73
2021/03/22 03:49:37;;;;;;;17.40;11.20;;;51.70;2227.20;;;;;;5046479;28;20507;-73
2021/03/22 03:52:07;;;;;;;17.95;11.63;;;51.70;2227.20;;;;;;5053370;28;20017;-72
2021/03/22 03:54:33;;;;;;;22.02;13.35;;;51.60;2227.20;;;;;;5044256;28;20039;-72
2021/03/22 03:56:59;;;;;;;20.85;12.52;;;51.60;2227.20;;;;;;5050436;28;20033;-72
2021/03/22 03:59:25;;;;;;;20.25;12.20;;;51.60;2227.20;;;;;;5051655;28;20389;-72
2021/03/22 04:01:51;;;;;;;19.98;12.15;;;51.60;2227.20;;;;;;5045539;28;20017;-73
2021/03/22 04:04:17;;;;;;;21.10;12.77;;;51.60;2227.20;;;;;;5030337;28;20108;-72
2021/03/22 04:06:43;;;;;;;23.08;13.70;;;51.60;2227.20;;;;;;5049689;28;20093;-73
2021/03/22 04:09:12;;;;;;;20.75;13.00;;;51.60;2227.20;;;;;;5041530;28;20026;-72
2021/03/22 04:11:41;;;;;;;21.63;13.02;;;51.60;2227.20;;;;;;5050104;28;20422;-73
2021/03/22 04:14:08;;;;;;;21.50;13.50;;;51.60;2227.20;;;;;;5052731;28;20028;-74
2021/03/22 04:16:34;;;;;;;19.70;12.07;;;51.60;2227.20;;;;;;5052445;28;20033;-73
2021/03/22 04:19:01;;;;;;;21.30;12.93;;;51.60;2227.20;;;;;;5052376;28;20041;-72
2021/03/22 04:21:30;;;;;;;22.85;13.35;;;51.60;2227.20;;;;;;5051655;28;20036;-73
2021/03/22 04:23:58;;;;;;;20.58;12.80;;;51.60;2227.20;;;;;;5028455;28;20029;-73
2021/03/22 04:26:23;;;;;;;21.63;12.63;;;51.50;2227.20;;;;;;5040448;28;20033;-72
2021/03/22 04:28:50;;;;;;;23.52;13.57;;;51.60;2227.20;;;;;;5036697;28;20017;-72
2021/03/22 04:31:19;;;;;;;20.52;12.93;;;51.60;2227.20;;;;;;5052456;28;20024;-73
2021/03/22 04:33:45;;;;;;;20.35;12.68;;;51.60;2227.20;;;;;;5052093;28;20040;-74
2021/03/22 04:36:12;;;;;;;21.52;13.48;;;51.50;2227.20;;;;;;5052182;28;20029;-72
2021/03/22 04:38:38;;;;;;;20.65;12.93;;;51.50;2227.20;;;;;;5051768;28;20107;-72
2021/03/22 04:41:05;;;;;;;23.20;13.23;;;51.60;2227.20;;;;;;5052162;28;20381;-71
2021/03/22 04:43:32;;;;;;;20.50;12.80;;;51.50;2227.20;;;;;;5032244;28;20501;-73
2021/03/22 04:45:59;;;;;;;21.13;13.07;;;51.50;2227.20;;;;;;5035909;28;20111;-73
2021/03/22 04:48:24;;;;;;;22.05;13.30;;;51.50;2227.20;;;;;;5024751;28;20025;-70
2021/03/22 04:50:50;;;;;;;24.55;14.45;;;51.50;2227.20;;;;;;5042482;28;20092;-75
2021/03/22 04:53:16;;;;;;;24.20;14.25;;;51.50;2227.20;;;;;;5032152;28;20095;-72
2021/03/22 04:55:42;;;;;;;23.60;13.45;;;51.50;2227.20;;;;;;5031752;28;20091;-72
2021/03/22 04:58:08;;;;;;;20.90;12.73;;;51.50;2227.20;;;;;;5031891;28;20029;-72
2021/03/22 05:00:52;;;;;;;22.38;13.40;;;51.50;2227.20;;;;;;5031564;28;20116;-72
2021/03/22 05:03:21;;;;;;;20.67;11.88;;;51.50;2227.20;;;;;;5027736;28;20108;-73
2021/03/22 05:05:46;;;;;;;18.48;11.70;;;51.50;2227.20;;;;;;5026232;28;20355;-73
2021/03/22 05:08:14;;;;;;;17.60;11.00;;;51.50;2227.20;;;;;;5029476;28;20025;-73
2021/03/22 05:10:43;;;;;;;17.48;10.88;;;51.50;2227.20;;;;;;5030962;28;20045;-73
2021/03/22 05:13:12;;;;;;;17.55;10.25;;;51.50;2227.20;;;;;;5031822;28;20038;-73
2021/03/22 05:15:38;;;;;;;15.68;9.77;;;51.50;2227.20;;;;;;5031502;28;20017;-73
2021/03/22 05:18:05;;;;;;;17.00;10.68;;;51.50;2227.20;;;;;;5031358;28;20592;-71
2021/03/22 05:20:38;;;;;;;18.58;10.85;;;51.50;2227.20;;;;;;5030266;28;20029;-74
2021/03/22 05:23:07;;;;;;;19.45;11.10;;;51.50;2227.20;;;;;;5025177;28;20049;-72
2021/03/22 05:25:33;;;;;;;19.80;11.68;;;51.50;2227.20;;;;;;5018525;28;20049;-73
2021/03/22 05:27:59;;;;;;;20.50;12.63;;;51.50;2227.20;;;;;;5029942;28;20470;-72
2021/03/22 05:30:26;;;;;;;20.50;11.77;;;51.50;2227.20;;;;;;5029964;28;20037;-72
2021/03/22 05:32:57;;;;;;;19.48;11.93;;;51.50;2227.20;;;;;;5030439;28;20024;-72
2021/03/22 05:35:23;;;;;;;19.83;12.45;;;51.50;2227.20;;;;;;5031350;28;20108;-72
2021/03/22 05:37:49;;;;;;;21.40;13.00;;;51.50;2227.20;;;;;;5029689;28;20040;-73
2021/03/22 05:40:35;;;;;;;21.67;13.07;;;51.50;2227.20;;;;;;5029870;28;20045;-74
2021/03/22 05:43:27;;;;;;;20.05;12.23;;;51.50;2227.20;;;;;;5030070;28;20021;-73
2021/03/22 05:46:09;;;;;;;20.80;12.38;;;51.50;2227.20;;;;;;5017293;28;20014;-72
2021/03/22 05:48:58;;;;;;;21.15;12.98;;;51.50;2227.20;;;;;;5028879;28;20386;-72
2021/03/22 05:51:57;;;;;;;27.50;16.00;;;51.40;2227.20;;;;;;5031289;28;20053;-73
2021/03/22 05:54:42;;;;;;;23.92;14.00;;;51.40;2227.20;;;;;;5025727;28;20222;-72
2021/03/22 05:57:17;;;;;;;23.92;14.23;;;51.40;2227.20;;;;;;5031225;28;20096;-73
2021/03/22 05:59:52;;;;;;;24.88;14.43;;;51.40;2227.20;;;;;;5030832;28;20060;-73
2021/03/22 06:02:31;;;;;;;26.20;14.52;;;51.30;2227.20;;;;;;5030946;28;20064;-73
2021/03/22 06:05:06;;;;;;;25.88;15.63;;;51.40;2227.20;;;;;;5029086;28;20033;-73
2021/03/22 06:07:42;;;;;;;26.45;15.95;;;51.40;2227.20;;;;;;5027787;28;20387;-74
2021/03/22 06:10:15;;;;;;;26.45;15.32;;;51.40;2227.20;;;;;;5027431;28;20032;-76
2021/03/22 06:12:49;;;;;;;28.58;16.85;;;51.40;2227.20;;;;;;5050469;28;20028;-72
2021/03/22 06:15:26;;;;;;;30.90;17.48;;;51.40;2227.20;;;;;;5051288;28;20040;-73
2021/03/22 06:18:05;;;;;;;30.30;17.50;;;51.50;2227.20;;;;;;5050955;28;20051;-73
2021/03/22 06:20:37;;;;;;;30.20;17.95;;;51.50;2227.20;;;;;;5050411;28;20361;-70
2021/03/22 06:23:06;;;;;;;30.80;17.92;;;51.50;2227.20;;;;;;5052782;28;20051;-73
2021/03/22 06:25:35;;;;;;;31.95;18.30;;;51.50;2227.20;;;;;;5054976;28;20413;-71
2021/03/22 06:28:23;;;;;;;33.92;18.60;;;51.60;2227.20;;;;;;5027945;28;20075;-73
2021/03/22 06:31:00;;;;;;;31.50;18.50;;;51.60;2227.20;;;;;;5034272;28;20029;-72
2021/03/22 06:33:34;;;;;;;32.58;18.23;;;51.70;2227.20;;;;;;5037266;28;20056;-73
2021/03/22 06:36:00;;;;;;;29.50;17.33;;;51.80;2227.20;;;;;;5054516;28;20029;-72
2021/03/22 06:38:26;;;;;;;31.45;18.50;;;51.90;2227.20;;;;;;5054074;28;20025;-73
2021/03/22 06:40:51;;;;;;;32.20;17.92;;;52.00;2227.20;;;;;;5054542;28;20025;-73
2021/03/22 06:43:23;;;;;;;30.30;17.83;;;52.00;2227.20;;;;;;5050288;28;20398;-73
2021/03/22 06:46:08;;;;;;;29.92;18.52;;;52.10;2227.20;;;;;;5054275;28;20017;-72
2021/03/22 06:48:36;;;;;;;29.13;17.23;;;52.10;2227.20;;;;;;5026417;28;20087;-71
2021/03/22 06:51:04;;;;;;;28.80;16.63;;;76.80;2227.20;;;;;;5034499;28;20014;-73
2021/03/22 06:53:36;;;;;;;30.35;17.33;;;76.80;2227.20;;;;;;5044874;28;20371;-72
2021/03/22 06:56:15;;;;;;;29.90;17.77;;;76.80;2227.20;;;;;;5046655;28;20032;-73
2021/03/22 06:58:42;;;;;;;29.85;18.45;;;76.80;2227.20;;;;;;5043742;28;20021;-73
2021/03/22 07:01:28;;;;;;;32.78;19.70;;;52.10;2227.20;;;;;;5054015;28;20021;-70
2021/03/22 07:04:13;;;;;;;39.38;23.40;;;52.10;2227.20;;;;;;5053980;28;20067;-72
2021/03/22 07:06:38;;;;;;;32.72;18.88;;;52.10;2227.20;;;;;;5048569;28;20596;-72
2021/03/22 07:09:04;;;;;;;30.23;18.67;;;52.10;2227.20;;;;;;5024131;28;20101;-73
2021/03/22 07:11:30;;;;;;;32.40;18.48;;;52.10;2227.20;;;;;;5046955;28;20021;-72
2021/03/22 07:13:59;;;;;;;30.83;18.48;;;52.10;2227.20;;;;;;5039814;28;20025;-73
2021/03/22 07:16:29;;;;;;;32.28;18.67;;;52.10;2227.20;;;;;;5053517;28;20028;-73
2021/03/22 07:19:27;;;;;;;31.33;18.15;;;52.10;2227.20;;;;;;5053521;28;20071;-73
2021/03/22 07:21:56;;;;;;;33.17;20.05;;;76.80;2227.20;;;;;;5013899;28;20510;-78
2021/03/22 07:24:45;;;;;;;31.50;19.90;;;76.80;2227.20;;;;;;5053718;28;20477;-74
2021/03/22 07:27:40;;;;;;;29.58;17.10;;;76.80;2227.20;;;;;;5048850;28;20029;-73
2021/03/22 07:30:19;;;;;;;28.58;16.77;;;76.90;2227.20;;;;;;5025477;28;20028;-72
2021/03/22 07:33:06;;;;;;;26.65;16.75;;;76.90;2227.20;;;;;;5037910;28;20040;-73
2021/03/22 07:35:34;;;;;;;27.65;16.27;;;76.90;2227.20;;;;;;5039741;28;20482;-73
2021/03/22 07:38:35;;;;;;;27.73;16.55;;;77.00;2227.20;;;;;;5037687;28;20075;-72
2021/03/22 07:41:37;;;;;;;31.48;18.02;;;77.00;2227.20;;;;;;5018862;28;20079;-72
2021/03/22 07:44:21;;;;;;;27.88;16.30;;;77.10;2227.20;;;;;;5009038;28;20083;-73
2021/03/22 07:47:24;;;;;;;27.45;17.05;;;77.10;2227.20;;;;;;5033034;28;20037;-72
2021/03/22 07:50:09;;;;;;;29.17;17.50;;;77.20;2227.20;;;;;;5023401;28;20414;-72
2021/03/22 07:52:58;;;;;;;27.77;16.02;;;77.30;2227.20;;;;;;5027085;28;20018;-75
2021/03/22 07:55:45;;;;;;;26.90;16.63;;;77.30;2227.20;;;;;;5032860;28;20029;-72
2021/03/22 07:58:59;;;;;;;25.98;16.13;;;77.40;2227.20;;;;;;5032749;28;20385;-72
2021/03/22 08:01:31;;;;;;;31.45;18.73;;;77.40;2227.20;;;;;;5013510;28;20037;-73
2021/03/22 08:04:15;;;;;;;28.13;17.20;;;77.60;2227.20;;;;;;5045105;28;20445;-74
2021/03/22 08:06:56;;;;;;;26.17;17.20;;;102.40;2227.20;;;;;;5047267;28;20017;-74
2021/03/22 08:09:31;;;;;;;29.75;18.27;;;102.40;2227.20;;;;;;5031498;28;20459;-73
2021/03/22 08:12:03;;;;;;;26.38;17.08;;;102.50;2227.20;;;;;;5032878;28;20021;-72
2021/03/22 08:14:30;;;;;;;26.50;17.48;;;102.70;2227.20;;;;;;5043338;28;20024;-72
2021/03/22 08:17:49;;;;;;;26.77;17.67;;;102.80;2227.20;;;;;;5052709;28;20025;-73
2021/03/22 08:20:28;;;;;;;25.73;16.80;;;102.90;2227.20;;;;;;5029881;28;20686;-72
2021/03/22 08:23:15;;;;;;;26.73;17.27;;;103.00;2227.20;;;;;;5030378;28;20029;-72
2021/03/22 08:25:48;;;;;;;26.42;16.85;;;102.80;2227.20;;;;;;5046034;28;20048;-73
2021/03/22 08:28:38;;;;;;;28.52;18.05;;;102.90;2227.20;;;;;;5051090;28;20382;-72
2021/03/22 08:31:10;;;;;;;25.92;16.65;;;102.80;2227.20;;;;;;5024951;28;20109;-73
2021/03/22 08:34:00;;;;;;;38.10;22.95;;;102.80;2227.20;;;;;;5038637;28;20031;-73
2021/03/22 08:36:55;;;;;;;31.93;21.07;;;102.80;2227.20;;;;;;5052216;28;20362;-75
2021/03/22 08:39:53;;;;;;;25.70;17.23;;;102.90;2227.20;;;;;;5051482;28;20037;-72
2021/03/22 08:42:48;;;;;;;25.95;15.57;;;102.90;2227.20;;;;;;5051996;28;20031;-72
2021/03/22 08:45:28;;;;;;;58.28;35.38;;;102.90;2227.20;;;;;;5043386;28;20037;-74
2021/03/22 08:48:00;;;;;;;;;;;103.00;2227.20;;;;;;5042471;28;20035;-74
2021/03/22 08:50:29;;;;;;;23.33;15.40;;;102.80;2227.20;;;;;;5028997;28;19909;-72
2021/03/22 08:52:59;;;;;;;20.85;13.93;;;102.80;2227.20;;;;;;5028152;28;20435;-72
2021/03/22 08:55:59;;;;;;;20.55;13.85;;;102.70;2227.20;;;;;;5031685;28;20519;-73
2021/03/22 08:58:59;;;;;;;20.38;14.13;;;102.70;2227.20;;;;;;5024600;28;20238;-71
2021/03/22 09:01:40;;;;;;;24.10;15.00;;;102.70;2227.20;;;;;;4999549;28;20041;-71
2021/03/22 09:04:21;;;;;;;;;;;102.80;2227.20;;;;;;5045932;28;20048;-73
2021/03/22 09:07:25;;;;;;;22.20;13.52;;;102.90;2227.20;;;;;;5017677;28;19910;-72
2021/03/22 09:09:51;;;;;;;24.23;14.52;;;102.80;2227.20;;;;;;5003167;28;20033;-72
2021/03/22 09:12:52;;;;;;;20.65;13.55;;;103.00;2227.20;;;;;;5015951;28;20546;-72
2021/03/22 09:15:59;;;;;;;18.50;12.23;;;103.10;2227.20;;;;;;5010960;28;20033;-73
2021/03/22 09:18:24;;;;;;;19.15;13.20;;;103.30;2227.20;;;;;;4993207;28;20181;-72
2021/03/22 09:20:53;;;;;;;20.35;13.48;;;128.30;2252.80;;;;;;5013517;28;20049;-73
2021/03/22 09:23:41;;;;;;;19.50;12.75;;;128.30;2252.80;;;;;;5017359;28;20025;-72
2021/03/22 09:26:09;;;;;;;22.40;14.55;;;128.50;2252.80;;;;;;5024459;28;20025;-71
2021/03/22 09:28:44;;;;;;;20.27;14.38;;;128.70;2252.80;;;;;;5021563;28;20021;-72
2021/03/22 09:31:12;;;;;;;27.20;17.15;;;128.90;2252.80;;;;;;5021377;28;20041;-73
2021/03/22 09:33:51;;;;;;;24.90;17.98;;;153.70;2252.80;;;;;;5019929;28;20107;-71
2021/03/22 09:36:37;;;;;;;23.58;15.77;;;153.90;2252.80;;;;;;5021803;28;20556;-73
2021/03/22 09:39:23;;;;;;;23.75;16.05;;;154.00;2252.80;;;;;;5021778;28;20022;-72
2021/03/22 09:41:52;;;;;;;24.25;15.90;;;154.10;2252.80;;;;;;5015990;28;20128;-73
2021/03/22 09:44:20;;;;;;;23.42;15.32;;;154.20;2252.80;;;;;;5023139;28;20470;-71
2021/03/22 09:47:02;;;;;;;22.25;15.68;;;154.40;2252.80;;;;;;5022262;28;20542;-72
2021/03/22 09:49:28;;;;;;;25.00;16.35;;;154.40;2252.80;;;;;;5014080;28;20454;-71
2021/03/22 09:52:02;;;;;;;24.25;16.25;;;154.40;2252.80;;;;;;5020711;28;20157;-72
2021/03/22 09:54:41;;;;;;;25.35;16.58;;;154.50;2252.80;;;;;;5013869;28;20517;-71
2021/03/22 09:57:37;;;;;;;28.23;17.42;;;154.20;2252.80;;;;;;5017455;28;20052;-72
2021/03/22 10:00:17;;;;;;;26.17;16.38;;;153.70;2252.80;;;;;;5019503;28;20406;-73
2021/03/22 10:02:50;;;;;;;24.13;17.08;;;153.60;2252.80;;;;;;5022990;28;20033;-70
2021/03/22 10:05:21;;;;;;;26.50;18.45;;;153.70;2252.80;;;;;;5026469;28;20033;-72
2021/03/22 10:08:24;;;;;;;23.88;16.75;;;154.00;2252.80;;;;;;5022537;28;20018;-72
2021/03/22 10:10:59;;;;;;;27.40;17.48;;;154.00;2252.80;;;;;;5021759;28;20112;-71
2021/03/22 10:13:27;;;;;;;27.92;18.13;;;154.10;2252.80;;;;;;5018488;28;20036;-72
2021/03/22 10:16:10;;;;;;;27.02;17.33;;;154.00;2252.80;;;;;;5023253;28;20067;-72
2021/03/22 10:18:42;;;;;;;27.95;17.80;;;153.90;2252.80;;;;;;5019722;28;20161;-72
2021/03/22 10:21:26;;;;;;;27.90;18.83;;;153.90;2252.80;;;;;;5015830;28;20053;-72
2021/03/22 10:23:58;;;;;;;30.05;19.40;;;154.00;2252.80;;;;;;5023080;28;20490;-71
2021/03/22 10:26:35;;;;;;;30.08;19.35;;;153.80;2252.80;;;;;;5031045;28;20022;-72
2021/03/22 10:29:20;;;;;;;29.75;19.27;;;128.90;2252.80;;;;;;5022764;28;20029;-72
2021/03/22 10:31:49;;;;;;;30.13;19.17;;;128.90;2252.80;;;;;;5018241;28;20021;-72
2021/03/22 10:34:25;;;;;;;33.22;20.90;;;153.70;2252.80;;;;;;5025046;28;20028;-72
2021/03/22 10:36:51;;;;;;;31.90;21.15;;;154.00;2252.80;;;;;;5026170;28;20025;-72
2021/03/22 10:39:33;;;;;;;31.05;20.33;;;154.10;2252.80;;;;;;5026060;28;20023;-73
2021/03/22 10:41:59;;;;;;;33.75;20.55;;;154.20;2252.80;;;;;;5022020;28;20029;-73
2021/03/22 10:44:33;;;;;;;35.63;23.15;;;154.10;2252.80;;;;;;5027614;28;20100;-70
2021/03/22 10:47:15;;;;;;;35.85;22.55;;;153.90;2252.80;;;;;;5031004;28;20086;-72
2021/03/22 10:49:42;;;;;;;32.88;21.20;;;153.90;2252.80;;;;;;5019224;28;20100;-70
2021/03/22 10:52:25;;;;;;;35.65;24.42;;;153.90;2252.80;;;;;;5020635;28;20026;-72
2021/03/22 10:54:52;;;;;;;31.02;19.63;;;154.00;2252.80;;;;;;5030151;28;20455;-72
2021/03/22 10:57:35;;;;;;;31.17;19.88;;;154.20;2252.80;;;;;;5032354;28;20025;-71
2021/03/22 11:00:21;;;;;;;33.53;21.05;;;153.90;2252.80;;;;;;5018557;28;20030;-71
2021/03/22 11:02:50;;;;;;;27.42;18.33;;;154.10;2252.80;;;;;;5018913;28;20030;-72
2021/03/22 11:05:18;;;;;;;29.92;19.42;;;154.10;2252.80;;;;;;5018525;28;20505;-72
2021/03/22 11:07:56;;;;;;;27.80;18.35;;;154.30;2252.80;;;;;;5020768;28;20022;-71
2021/03/22 11:10:23;;;;;;;26.98;18.35;;;154.20;2252.80;;;;;;5020080;28;20026;-72
2021/03/22 11:12:50;;;;;;;25.02;17.30;;;154.10;2252.80;;;;;;5023904;28;20041;-71
2021/03/22 11:15:19;;;;;;;27.33;17.67;;;154.30;2252.80;;;;;;5021598;28;20025;-72
2021/03/22 11:17:47;;;;;;;26.00;17.65;;;179.20;2252.80;;;;;;5030288;28;20100;-71
2021/03/22 11:20:15;;;;;;;26.80;17.67;;;204.80;2252.80;;;;;;5032988;28;20060;-70
2021/03/22 11:22:43;;;;;;;32.72;21.77;;;205.20;2201.60;;;;;;5033174;28;20029;-69
2021/03/22 11:25:31;;;;;;;30.83;19.75;;;205.10;2176.00;;;;;;5018484;28;20561;-72
2021/03/22 11:28:00;;;;;;;28.88;18.40;;;204.80;2227.20;;;;;;5020657;28;20091;-71
2021/03/22 11:30:40;;;;;;;31.77;22.25;;;180.00;2252.80;;;;;;5027731;28;20029;-70
2021/03/22 11:33:22;;;;;;;34.17;23.27;;;205.20;2201.60;;;;;;5024478;28;20056;-73
2021/03/22 11:36:06;;;;;;;26.83;18.55;;;205.60;2176.00;;;;;;5025774;28;20025;-71
2021/03/22 11:38:42;;;;;;;29.38;16.90;;;205.10;2073.60;;;;;;5025503;28;20024;-70
2021/03/22 11:41:24;;;;;;;31.73;21.65;;;205.40;2073.60;;;;;;5027219;28;20443;-68
2021/03/22 11:44:02;;;;;;;29.38;20.85;;;205.70;2022.40;;;;;;5024706;28;20037;-67
2021/03/22 11:46:27;;;;;;;26.73;17.35;;;205.50;2048.00;;;;;;5029097;28;20026;-68
2021/03/22 11:48:53;;;;;;;24.10;16.90;;;205.60;2022.40;;;;;;5025422;28;20069;-66
2021/03/22 11:51:19;;;;;;;24.92;15.57;;;230.50;1971.20;;;;;;5031457;28;20021;-68
2021/03/22 11:54:04;;;;;;;21.98;14.43;;;230.60;1894.40;;;;;;5030473;28;20030;-67
2021/03/22 11:56:34;;;;;;;20.38;13.60;;;230.60;1868.80;;;;;;5033342;28;20029;-68
2021/03/22 11:59:07;;;;;;;18.98;13.05;;;230.90;1792.00;;;;;;5032330;28;20485;-69
2021/03/22 12:01:32;;;;;;;20.60;13.30;;;230.50;1766.40;;;;;;5032296;28;20108;-68
2021/03/22 12:04:04;;;;;;;27.88;18.58;;;231.00;1868.80;;;;;;5032474;28;20451;-69
2021/03/22 12:06:33;;;;;;;26.42;18.55;;;230.80;1971.20;;;;;;5032128;28;20028;-68
2021/03/22 12:08:58;;;;;;;28.27;19.65;;;230.50;2022.40;;;;;;5031902;28;20013;-68
2021/03/22 12:11:30;;;;;;;31.00;20.95;;;205.60;2048.00;;;;;;5032179;28;20120;-68
2021/03/22 12:14:00;;;;;;;30.52;20.27;;;205.40;2124.80;;;;;;5028457;28;20105;-68
2021/03/22 12:16:31;;;;;;;29.88;21.40;;;205.60;2124.80;;;;;;5022944;28;20428;-69
2021/03/22 12:19:03;;;;;;;30.92;21.05;;;205.60;2150.40;;;;;;5031820;28;20042;-68
2021/03/22 12:21:29;;;;;;;31.60;20.70;;;205.50;2124.80;;;;;;5037802;28;20040;-69
2021/03/22 12:23:55;;;;;;;30.60;20.85;;;205.50;2124.80;;;;;;5038888;28;20021;-69
2021/03/22 12:26:21;;;;;;;31.85;22.55;;;205.30;2150.40;;;;;;5032105;28;20029;-69
2021/03/22 12:28:55;;;;;;;28.23;20.33;;;205.10;2201.60;;;;;;5032289;28;20052;-68
2021/03/22 12:31:31;;;;;;;31.70;22.73;;;204.90;2201.60;;;;;;5027219;28;20025;-68
2021/03/22 12:33:59;;;;;;;31.27;21.90;;;205.00;2252.80;;;;;;5024718;28;20038;-68
2021/03/22 12:36:25;;;;;;;25.35;17.98;;;205.30;2252.80;;;;;;5025191;28;20120;-69
2021/03/22 12:38:51;;;;;;;23.92;16.52;;;205.60;2150.40;;;;;;5037604;28;20018;-69